sensor_id;sensor_type;location;lat;lon;timestamp;pressure;altitude;pressure_sealevel;temperature;humidity
26178;BME280;13924;47.670;10.310;2022-10-23T00:07:37;93660;;;9.8;100.0
26178;BME280;13924;47.670;10.310;2022-10-23T00:12:51;93640;;;9.8;100.0
26178;BME280;13924;47.670;10.310;2022-10-23T00:23:31;93640;;;9.8;100.0
26178;BME280;13924;47.670;10.310;2022-10-23T00:28:45;93640;;;9.8;100.0
26178;BME280;13924;47.670;10.310;2022-10-23T00:33:56;93640;;;9.8;100.0
26178;BME280;13924;47.670;10.310;2022-10-23T00:39:10;93640;;;9.8;100.0
26178;BME280;13924;47.670;10.310;2022-10-23T00:49:40;93650;;;9.6;100.0
26178;BME280;13924;47.670;10.310;2022-10-23T00:54:52;93650;;;9.6;100.0
26178;BME280;13924;47.670;10.310;2022-10-23T01:05:34;93630;;;9.6;100.0
26178;BME280;13924;47.670;10.310;2022-10-23T01:10:42;93600;;;9.6;100.0
26178;BME280;13924;47.670;10.310;2022-10-23T01:15:55;93590;;;9.4;100.0
26178;BME280;13924;47.670;10.310;2022-10-23T01:21:05;93650;;;9.3;100.0
26178;BME280;13924;47.670;10.310;2022-10-23T01:36:56;93660;;;9.2;100.0
26178;BME280;13924;47.670;10.310;2022-10-23T01:42:10;93610;;;9.3;100.0
26178;BME280;13924;47.670;10.310;2022-10-23T01:47:20;93620;;;9.1;100.0
26178;BME280;13924;47.670;10.310;2022-10-23T01:52:27;93640;;;9.1;100.0
26178;BME280;13924;47.670;10.310;2022-10-23T01:57:38;93620;;;9.0;100.0
26178;BME280;13924;47.670;10.310;2022-10-23T02:02:50;93640;;;8.7;100.0
26178;BME280;13924;47.670;10.310;2022-10-23T02:08:01;93650;;;8.8;100.0
26178;BME280;13924;47.670;10.310;2022-10-23T02:13:17;93580;;;9.0;100.0
26178;BME280;13924;47.670;10.310;2022-10-23T02:18:33;93550;;;9.0;100.0
26178;BME280;13924;47.670;10.310;2022-10-23T02:23:39;93570;;;8.8;100.0
26178;BME280;13924;47.670;10.310;2022-10-23T02:28:49;93590;;;8.7;100.0
26178;BME280;13924;47.670;10.310;2022-10-23T02:33:57;93570;;;8.8;100.0
26178;BME280;13924;47.670;10.310;2022-10-23T02:39:08;93530;;;8.8;100.0
26178;BME280;13924;47.670;10.310;2022-10-23T02:49:45;93520;;;8.9;100.0
26178;BME280;13924;47.670;10.310;2022-10-23T02:55:04;93500;;;9.0;100.0
26178;BME280;13924;47.670;10.310;2022-10-23T03:05:25;93540;;;8.7;100.0
26178;BME280;13924;47.670;10.310;2022-10-23T03:10:34;93550;;;8.7;100.0
26178;BME280;13924;47.670;10.310;2022-10-23T03:15:49;93520;;;8.9;100.0
26178;BME280;13924;47.670;10.310;2022-10-23T03:26:18;93540;;;8.8;100.0
26178;BME280;13924;47.670;10.310;2022-10-23T03:42:17;93530;;;8.8;100.0
26178;BME280;13924;47.670;10.310;2022-10-23T03:47:27;93560;;;8.5;100.0
26178;BME280;13924;47.670;10.310;2022-10-23T03:52:37;93540;;;8.6;100.0
26178;BME280;13924;47.670;10.310;2022-10-23T03:57:49;93480;;;8.8;100.0
26178;BME280;13924;47.670;10.310;2022-10-23T04:03:00;93450;;;8.9;100.0
26178;BME280;13924;47.670;10.310;2022-10-23T04:08:12;93470;;;8.6;100.0
26178;BME280;13924;47.670;10.310;2022-10-23T04:13:23;93500;;;8.6;100.0
26178;BME280;13924;47.670;10.310;2022-10-23T04:18:34;93520;;;8.6;100.0
26178;BME280;13924;47.670;10.310;2022-10-23T04:23:44;93560;;;8.3;100.0
26178;BME280;13924;47.670;10.310;2022-10-23T04:28:54;93540;;;8.4;100.0
26178;BME280;13924;47.670;10.310;2022-10-23T04:34:04;93520;;;8.5;100.0
26178;BME280;13924;47.670;10.310;2022-10-23T04:39:16;93500;;;8.4;100.0
26178;BME280;13924;47.670;10.310;2022-10-23T04:44:28;93480;;;8.5;100.0
26178;BME280;13924;47.670;10.310;2022-10-23T04:49:40;93490;;;8.4;100.0
26178;BME280;13924;47.670;10.310;2022-10-23T04:54:51;93520;;;8.2;100.0
26178;BME280;13924;47.670;10.310;2022-10-23T05:05:23;93540;;;8.3;100.0
26178;BME280;13924;47.670;10.310;2022-10-23T05:10:34;93470;;;8.6;100.0
26178;BME280;13924;47.670;10.310;2022-10-23T05:15:51;93470;;;8.6;100.0
26178;BME280;13924;47.670;10.310;2022-10-23T05:26:21;93450;;;8.2;100.0
26178;BME280;13924;47.670;10.310;2022-10-23T05:31:33;93470;;;8.4;100.0
26178;BME280;13924;47.670;10.310;2022-10-23T05:36:43;93400;;;8.6;100.0
26178;BME280;13924;47.670;10.310;2022-10-23T05:52:38;93440;;;8.0;100.0
26178;BME280;13924;47.670;10.310;2022-10-23T05:57:53;93440;;;8.0;100.0
26178;BME280;13924;47.670;10.310;2022-10-23T06:03:04;93540;;;8.1;100.0
26178;BME280;13924;47.670;10.310;2022-10-23T06:08:16;93490;;;8.4;100.0
26178;BME280;13924;47.670;10.310;2022-10-23T06:13:26;93470;;;8.3;100.0
26178;BME280;13924;47.670;10.310;2022-10-23T06:18:42;93470;;;8.3;100.0
26178;BME280;13924;47.670;10.310;2022-10-23T06:23:57;93470;;;8.3;100.0
26178;BME280;13924;47.670;10.310;2022-10-23T06:29:10;93490;;;8.0;100.0
26178;BME280;13924;47.670;10.310;2022-10-23T06:34:19;93550;;;8.1;100.0
26178;BME280;13924;47.670;10.310;2022-10-23T06:39:32;93510;;;8.4;100.0
26178;BME280;13924;47.670;10.310;2022-10-23T06:44:45;93470;;;8.5;100.0
26178;BME280;13924;47.670;10.310;2022-10-23T06:55:18;93460;;;8.6;100.0
26178;BME280;13924;47.670;10.310;2022-10-23T07:00:34;93460;;;8.6;100.0
26178;BME280;13924;47.670;10.310;2022-10-23T07:05:52;93460;;;8.6;100.0
26178;BME280;13924;47.670;10.310;2022-10-23T07:16:25;93440;;;9.1;100.0
26178;BME280;13924;47.670;10.310;2022-10-23T07:38:08;93440;;;9.1;100.0
26178;BME280;13924;47.670;10.310;2022-10-23T07:43:18;93480;;;9.3;100.0
26178;BME280;13924;47.670;10.310;2022-10-23T07:48:30;93510;;;9.4;100.0
26178;BME280;13924;47.670;10.310;2022-10-23T07:53:39;93500;;;9.7;100.0
26178;BME280;13924;47.670;10.310;2022-10-23T08:09:35;93520;;;10.4;100.0
26178;BME280;13924;47.670;10.310;2022-10-23T08:20:09;93490;;;10.7;100.0
26178;BME280;13924;47.670;10.310;2022-10-23T08:25:20;93450;;;11.0;100.0
26178;BME280;13924;47.670;10.310;2022-10-23T08:30:30;93410;;;11.3;100.0
26178;BME280;13924;47.670;10.310;2022-10-23T08:35:45;93370;;;11.6;100.0
26178;BME280;13924;47.670;10.310;2022-10-23T08:40:56;93410;;;12.0;100.0
26178;BME280;13924;47.670;10.310;2022-10-23T08:46:14;93410;;;12.0;100.0
26178;BME280;13924;47.670;10.310;2022-10-23T08:52:02;93410;;;12.0;100.0
26178;BME280;13924;47.670;10.310;2022-10-23T08:57:12;93340;;;12.4;100.0
26178;BME280;13924;47.670;10.310;2022-10-23T09:02:21;93360;;;12.6;100.0
26178;BME280;13924;47.670;10.310;2022-10-23T09:13:02;;;;12.6;
26178;BME280;13924;47.670;10.310;2022-10-23T09:18:13;93300;;;13.2;100.0
26178;BME280;13924;47.670;10.310;2022-10-23T09:23:23;93280;;;13.7;100.0
26178;BME280;13924;47.670;10.310;2022-10-23T09:34:01;93240;;;14.7;100.0
26178;BME280;13924;47.670;10.310;2022-10-23T09:39:22;93240;;;14.7;100.0
26178;BME280;13924;47.670;10.310;2022-10-23T09:44:31;93230;;;14.7;100.0
26178;BME280;13924;47.670;10.310;2022-10-23T09:55:18;93200;;;15.2;100.0
26178;BME280;13924;47.670;10.310;2022-10-23T10:07:54;93200;;;15.2;100.0
26178;BME280;13924;47.670;10.310;2022-10-23T10:23:40;93190;;;17.8;100.0
26178;BME280;13924;47.670;10.310;2022-10-23T10:39:43;93180;;;19.3;100.0
26178;BME280;13924;47.670;10.310;2022-10-23T10:55:34;93160;;;20.4;100.0
26178;BME280;13924;47.670;10.310;2022-10-23T11:06:13;93160;;;20.4;100.0
26178;BME280;13924;47.670;10.310;2022-10-23T11:11:25;93160;;;20.4;100.0
26178;BME280;13924;47.670;10.310;2022-10-23T11:22:02;93130;;;20.5;100.0
26178;BME280;13924;47.670;10.310;2022-10-23T11:32:47;93140;;;21.6;100.0
26178;BME280;13924;47.670;10.310;2022-10-23T11:37:42;93120;;;20.8;100.0
26178;BME280;13924;47.670;10.310;2022-10-23T11:48:33;93120;;;19.5;100.0
26178;BME280;13924;47.670;10.310;2022-10-23T11:58:51;93110;;;19.1;100.0
26178;BME280;13924;47.670;10.310;2022-10-23T12:05:29;93110;;;19.1;100.0
26178;BME280;13924;47.670;10.310;2022-10-23T12:21:25;93110;;;19.1;100.0
26178;BME280;13924;47.670;10.310;2022-10-23T12:26:53;93100;;;19.2;100.0
26178;BME280;13924;47.670;10.310;2022-10-23T12:42:38;93100;;;19.2;100.0
26178;BME280;13924;47.670;10.310;2022-10-23T12:47:54;93080;;;19.0;100.0
26178;BME280;13924;47.670;10.310;2022-10-23T12:58:28;93060;;;18.8;100.0
26178;BME280;13924;47.670;10.310;2022-10-23T13:03:49;93060;;;18.8;100.0
26178;BME280;13924;47.670;10.310;2022-10-23T13:09:21;93060;;;18.8;100.0
26178;BME280;13924;47.670;10.310;2022-10-23T13:14:29;93040;;;19.8;100.0
26178;BME280;13924;47.670;10.310;2022-10-23T13:35:39;93040;;;19.8;100.0
26178;BME280;13924;47.670;10.310;2022-10-23T14:38:57;93030;;;19.4;100.0
26178;BME280;13924;47.670;10.310;2022-10-23T14:49:20;93040;;;19.0;100.0
26178;BME280;13924;47.670;10.310;2022-10-23T14:54:38;93040;;;19.0;100.0
26178;BME280;13924;47.670;10.310;2022-10-23T14:59:50;93030;;;18.0;100.0
26178;BME280;13924;47.670;10.310;2022-10-23T15:04:59;93020;;;17.9;100.0
26178;BME280;13924;47.670;10.310;2022-10-23T15:10:15;93020;;;17.9;100.0
26178;BME280;13924;47.670;10.310;2022-10-23T15:15:26;93000;;;17.4;100.0
26178;BME280;13924;47.670;10.310;2022-10-23T15:26:12;93000;;;17.4;100.0
26178;BME280;13924;47.670;10.310;2022-10-23T15:31:52;92990;;;17.1;100.0
26178;BME280;13924;47.670;10.310;2022-10-23T15:36:31;92990;;;17.1;100.0
26178;BME280;13924;47.670;10.310;2022-10-23T15:41:47;92990;;;17.1;100.0
26178;BME280;13924;47.670;10.310;2022-10-23T15:46:58;93020;;;16.8;100.0
26178;BME280;13924;47.670;10.310;2022-10-23T15:52:14;93000;;;16.6;100.0
26178;BME280;13924;47.670;10.310;2022-10-23T15:57:20;93020;;;16.5;100.0
26178;BME280;13924;47.670;10.310;2022-10-23T16:02:31;93110;;;16.7;100.0
26178;BME280;13924;47.670;10.310;2022-10-23T16:07:43;93130;;;16.5;100.0
26178;BME280;13924;47.670;10.310;2022-10-23T16:12:55;93170;;;16.4;100.0
26178;BME280;13924;47.670;10.310;2022-10-23T16:18:09;93200;;;16.2;100.0
26178;BME280;13924;47.670;10.310;2022-10-23T16:23:22;93230;;;16.0;100.0
26178;BME280;13924;47.670;10.310;2022-10-23T16:28:32;93270;;;16.0;100.0
26178;BME280;13924;47.670;10.310;2022-10-23T16:33:43;93320;;;16.0;100.0
26178;BME280;13924;47.670;10.310;2022-10-23T16:44:19;93350;;;15.9;100.0
26178;BME280;13924;47.670;10.310;2022-10-23T16:49:29;93380;;;15.9;100.0
26178;BME280;13924;47.670;10.310;2022-10-23T16:54:41;93300;;;15.8;100.0
26178;BME280;13924;47.670;10.310;2022-10-23T16:59:49;93340;;;15.7;100.0
26178;BME280;13924;47.670;10.310;2022-10-23T17:04:59;93390;;;15.8;100.0
26178;BME280;13924;47.670;10.310;2022-10-23T17:10:16;93390;;;15.8;100.0
26178;BME280;13924;47.670;10.310;2022-10-23T17:20:42;93310;;;15.4;100.0
26178;BME280;13924;47.670;10.310;2022-10-23T17:25:58;93250;;;15.5;100.0
26178;BME280;13924;47.670;10.310;2022-10-23T17:31:12;93250;;;15.5;100.0
26178;BME280;13924;47.670;10.310;2022-10-23T17:36:22;93210;;;15.6;100.0
26178;BME280;13924;47.670;10.310;2022-10-23T17:41:33;93190;;;15.6;100.0
26178;BME280;13924;47.670;10.310;2022-10-23T17:46:48;93160;;;15.6;100.0
26178;BME280;13924;47.670;10.310;2022-10-23T17:51:56;93140;;;15.6;100.0
26178;BME280;13924;47.670;10.310;2022-10-23T17:57:07;93160;;;15.5;100.0
26178;BME280;13924;47.670;10.310;2022-10-23T18:02:19;93180;;;15.4;100.0
26178;BME280;13924;47.670;10.310;2022-10-23T18:07:31;93160;;;15.4;100.0
26178;BME280;13924;47.670;10.310;2022-10-23T18:12:44;93140;;;15.4;100.0
26178;BME280;13924;47.670;10.310;2022-10-23T18:17:55;93160;;;15.3;100.0
26178;BME280;13924;47.670;10.310;2022-10-23T18:28:29;93200;;;15.0;100.0
26178;BME280;13924;47.670;10.310;2022-10-23T18:44:26;93180;;;14.9;100.0
26178;BME280;13924;47.670;10.310;2022-10-23T18:49:37;93190;;;14.9;100.0
26178;BME280;13924;47.670;10.310;2022-10-23T19:00:12;93210;;;14.8;100.0
26178;BME280;13924;47.670;10.310;2022-10-23T19:05:23;93230;;;14.7;100.0
26178;BME280;13924;47.670;10.310;2022-10-23T19:10:35;93260;;;14.6;100.0
26178;BME280;13924;47.670;10.310;2022-10-23T19:15:51;93260;;;14.6;100.0
26178;BME280;13924;47.670;10.310;2022-10-23T19:21:02;93320;;;14.5;100.0
26178;BME280;13924;47.670;10.310;2022-10-23T19:26:18;93320;;;14.5;100.0
26178;BME280;13924;47.670;10.310;2022-10-23T19:31:30;93330;;;14.4;100.0
26178;BME280;13924;47.670;10.310;2022-10-23T19:36:43;93380;;;14.2;100.0
26178;BME280;13924;47.670;10.310;2022-10-23T19:41:54;93400;;;14.2;100.0
26178;BME280;13924;47.670;10.310;2022-10-23T19:47:07;93370;;;14.2;100.0
26178;BME280;13924;47.670;10.310;2022-10-23T19:52:20;93350;;;14.2;100.0
26178;BME280;13924;47.670;10.310;2022-10-23T19:57:32;93340;;;14.2;100.0
26178;BME280;13924;47.670;10.310;2022-10-23T20:02:44;93370;;;14.2;100.0
26178;BME280;13924;47.670;10.310;2022-10-23T20:07:56;93490;;;13.9;100.0
26178;BME280;13924;47.670;10.310;2022-10-23T20:13:11;93490;;;13.9;100.0
26178;BME280;13924;47.670;10.310;2022-10-23T20:18:25;93490;;;13.9;100.0
26178;BME280;13924;47.670;10.310;2022-10-23T20:23:36;93270;;;14.6;100.0
26178;BME280;13924;47.670;10.310;2022-10-23T20:28:52;93440;;;14.1;100.0
26178;BME280;13924;47.670;10.310;2022-10-23T20:33:57;93510;;;14.2;100.0
26178;BME280;13924;47.670;10.310;2022-10-23T20:39:12;93460;;;14.3;100.0
26178;BME280;13924;47.670;10.310;2022-10-23T20:49:42;93340;;;15.2;100.0
26178;BME280;13924;47.670;10.310;2022-10-23T20:54:57;93340;;;15.2;100.0
26178;BME280;13924;47.670;10.310;2022-10-23T21:10:53;93340;;;16.3;100.0
26178;BME280;13924;47.670;10.310;2022-10-23T21:16:12;93360;;;16.4;100.0
26178;BME280;13924;47.670;10.310;2022-10-23T21:26:37;93380;;;16.5;100.0
26178;BME280;13924;47.670;10.310;2022-10-23T21:37:11;93390;;;16.4;100.0
26178;BME280;13924;47.670;10.310;2022-10-23T21:42:24;93380;;;16.4;100.0
26178;BME280;13924;47.670;10.310;2022-10-23T21:47:36;93410;;;16.4;100.0
26178;BME280;13924;47.670;10.310;2022-10-23T21:52:51;93410;;;16.4;100.0
26178;BME280;13924;47.670;10.310;2022-10-23T22:03:25;93420;;;16.3;100.0
26178;BME280;13924;47.670;10.310;2022-10-23T22:08:40;93420;;;16.3;100.0
26178;BME280;13924;47.670;10.310;2022-10-23T22:19:16;93440;;;16.4;100.0
26178;BME280;13924;47.670;10.310;2022-10-23T22:24:27;93420;;;16.3;100.0
26178;BME280;13924;47.670;10.310;2022-10-23T22:40:26;93400;;;16.0;100.0
26178;BME280;13924;47.670;10.310;2022-10-23T22:50:59;93400;;;16.0;100.0
26178;BME280;13924;47.670;10.310;2022-10-23T22:56:14;93420;;;15.6;100.0
26178;BME280;13924;47.670;10.310;2022-10-23T23:01:29;93420;;;15.6;100.0
26178;BME280;13924;47.670;10.310;2022-10-23T23:06:37;93410;;;15.5;100.0
26178;BME280;13924;47.670;10.310;2022-10-23T23:11:49;93430;;;15.4;100.0
26178;BME280;13924;47.670;10.310;2022-10-23T23:17:01;93440;;;15.3;100.0
26178;BME280;13924;47.670;10.310;2022-10-23T23:22:16;93440;;;15.3;100.0
26178;BME280;13924;47.670;10.310;2022-10-23T23:27:33;93440;;;15.3;100.0
26178;BME280;13924;47.670;10.310;2022-10-23T23:38:07;93480;;;15.0;100.0
26178;BME280;13924;47.670;10.310;2022-10-23T23:43:19;93500;;;14.9;100.0
26178;BME280;13924;47.670;10.310;2022-10-23T23:48:31;93550;;;14.6;100.0
26178;BME280;13924;47.670;10.310;2022-10-23T23:53:42;93570;;;14.5;100.0
26178;BME280;13924;47.670;10.310;2022-10-23T23:58:54;93610;;;14.5;100.0
